Time;durP1;ratioP1;P1;durP2;ratioP2;P2;SDS_P1;SDS_P2;PMS_P1;PMS_P2;Temp;Humidity;BMP_temperature;BMP_pressure;BME280_temperature;BME280_humidity;BME280_pressure;Samples;Min_cycle;Max_cycle;Signal;HPM_P1;HPM_P2
2023/07/26 00:01:34;;;;;;;8.57;4.20;;;;;;;-142.57;94.63;115900.28;6224588;23;20331;-87
2023/07/26 00:04:02;;;;;;;7.70;3.80;;;;;;;-142.57;94.80;115900.28;6251633;23;20008;-84
2023/07/26 00:06:31;;;;;;;7.85;4.18;;;;;;;-142.57;92.49;115900.28;6251168;23;20386;-85
2023/07/26 00:08:56;;;;;;;6.90;3.50;;;;;;;-142.57;92.85;115900.28;6250392;23;20004;-84
2023/07/26 00:11:22;;;;;;;6.47;3.60;;;;;;;-142.57;92.07;115900.28;6250238;23;20039;-85
2023/07/26 00:13:48;;;;;;;7.25;3.22;;;;;;;-142.57;89.97;115900.28;6250917;23;19996;-87
2023/07/26 00:16:13;;;;;;;7.88;3.67;;;;;;;-142.57;87.61;115900.28;6222833;23;20019;-86
2023/07/26 00:18:39;;;;;;;7.43;3.53;;;;;;;-142.57;85.94;115900.28;6249650;23;20012;-85
2023/07/26 00:21:06;;;;;;;6.97;3.35;;;;;;;-142.57;85.55;115900.28;6250632;23;20015;-86
2023/07/26 00:23:35;;;;;;;5.68;3.40;;;;;;;-142.57;84.71;115900.28;6249764;23;20005;-89
2023/07/26 00:26:01;;;;;;;6.10;3.60;;;;;;;-142.57;85.71;115900.28;6250393;23;20423;-86
2023/07/26 00:28:26;;;;;;;5.43;3.42;;;;;;;-142.57;85.74;115900.28;6252428;23;20066;-88
2023/07/26 00:30:52;;;;;;;6.47;4.00;;;;;;;-142.57;85.62;115900.28;6252132;23;20019;-89
2023/07/26 00:33:19;;;;;;;7.15;3.63;;;;;;;-142.57;86.40;115900.28;6224073;23;20092;-88
2023/07/26 00:35:44;;;;;;;6.57;3.72;;;;;;;-142.57;86.95;115900.28;6224303;23;20336;-86
2023/07/26 00:38:11;;;;;;;8.23;3.80;;;;;;;-142.57;90.26;115900.28;6251522;23;20386;-89
2023/07/26 00:40:37;;;;;;;7.25;3.72;;;;;;;-142.57;90.79;115900.28;6249588;23;20061;-87
2023/07/26 00:43:03;;;;;;;7.82;4.10;;;;;;;-142.57;90.48;115900.28;6249517;23;20012;-86
2023/07/26 00:45:30;;;;;;;7.75;4.45;;;;;;;-142.57;92.65;115900.28;6249216;23;20331;-85
2023/07/26 00:47:57;;;;;;;6.72;4.05;;;;;;;-142.57;93.51;115900.28;6247768;23;20015;-85
2023/07/26 00:50:23;;;;;;;7.70;4.50;;;;;;;-142.57;93.36;115900.28;6249787;23;20007;-86
2023/07/26 00:52:49;;;;;;;7.00;3.83;;;;;;;-142.57;93.53;115900.28;6223308;23;20012;-85
2023/07/26 00:55:15;;;;;;;6.47;4.35;;;;;;;-142.57;92.92;115900.28;6221965;23;20004;-86
2023/07/26 00:57:42;;;;;;;9.68;5.18;;;;;;;-142.57;92.09;115900.28;6248346;23;20013;-87
2023/07/26 01:00:09;;;;;;;8.93;4.45;;;;;;;-142.57;94.29;115900.28;6248848;23;20000;-86
2023/07/26 01:02:34;;;;;;;7.68;4.00;;;;;;;-142.57;93.53;115900.28;6249067;23;20008;-87
2023/07/26 01:05:01;;;;;;;7.47;4.97;;;;;;;-142.57;92.39;115900.28;6254302;23;20012;-88
2023/07/26 01:07:35;;;;;;;6.13;4.00;;;;;;;-142.57;92.68;115900.28;6258530;23;20059;-86
2023/07/26 01:10:27;;;;;;;6.22;4.32;;;;;;;-142.57;93.80;115900.28;6237607;23;20019;-84
2023/07/26 01:12:57;;;;;;;6.90;4.35;;;;;;;-142.57;92.83;115900.28;6233633;23;20023;-87
2023/07/26 01:15:28;;;;;;;11.65;4.85;;;;;;;-142.57;92.79;115900.28;6246630;23;20008;-87
2023/07/26 01:18:15;;;;;;;10.98;4.63;;;;;;;-142.57;95.02;115900.28;6273126;22;20000;-85
2023/07/26 01:20:41;;;;;;;7.45;4.75;;;;;;;-142.57;95.28;115900.28;6265537;22;20012;-86
2023/07/26 01:23:08;;;;;;;9.30;4.85;;;;;;;-142.57;95.77;115900.28;6222039;23;20324;-85
2023/07/26 01:25:34;;;;;;;10.32;4.75;;;;;;;-142.57;95.68;115900.28;6249363;23;20035;-87
2023/07/26 01:27:59;;;;;;;9.80;4.68;;;;;;;-142.57;96.99;115900.28;6223231;23;20016;-87
2023/07/26 01:30:30;;;;;;;8.43;4.47;;;;;;;-142.57;97.04;115900.28;6249747;23;20331;-88
2023/07/26 01:32:59;;;;;;;11.73;4.32;;;;;;;-142.57;97.27;115900.28;6222911;23;20008;-86
2023/07/26 01:35:26;;;;;;;7.18;4.07;;;;;;;-142.57;97.53;115900.28;6221141;23;20012;-85
2023/07/26 01:37:54;;;;;;;5.63;3.53;;;;;;;-142.57;97.69;115900.28;6248616;23;20328;-85
2023/07/26 01:40:21;;;;;;;7.57;4.22;;;;;;;-142.57;97.59;115900.28;6221344;23;20060;-86
2023/07/26 01:42:48;;;;;;;8.57;4.35;;;;;;;-142.57;98.75;115900.28;6221179;23;20019;-86
2023/07/26 01:45:14;;;;;;;6.40;4.30;;;;;;;-142.57;99.90;115900.28;6248116;23;20031;-86
2023/07/26 01:47:39;;;;;;;7.28;4.30;;;;;;;-142.57;100.00;115900.28;6221795;23;20436;-85
2023/07/26 01:50:07;;;;;;;6.03;4.20;;;;;;;-142.57;100.00;115900.28;6248802;23;20023;-88
2023/07/26 01:52:33;;;;;;;8.30;4.47;;;;;;;-142.57;100.00;115900.28;6249389;23;20083;-87
2023/07/26 01:54:59;;;;;;;10.18;4.68;;;;;;;-142.57;100.00;115900.28;6248875;23;20047;-87
2023/07/26 01:57:25;;;;;;;8.52;4.65;;;;;;;-142.57;100.00;115900.28;6248326;23;20478;-85
2023/07/26 01:59:52;;;;;;;12.43;4.63;;;;;;;-142.57;100.00;115900.28;6220670;23;20004;-86
2023/07/26 02:02:18;;;;;;;8.43;5.07;;;;;;;-142.57;100.00;115900.28;6220410;23;20054;-86
2023/07/26 02:04:44;;;;;;;10.68;4.85;;;;;;;-142.57;100.00;115900.28;6221053;23;20008;-87
2023/07/26 02:07:10;;;;;;;7.10;4.40;;;;;;;-142.57;100.00;115900.28;6222116;23;20434;-86
2023/07/26 02:09:36;;;;;;;9.90;4.70;;;;;;;-142.57;99.48;115900.28;6221421;23;20004;-87
2023/07/26 02:12:02;;;;;;;7.07;4.40;;;;;;;-142.57;99.85;115900.28;6229660;23;20022;-85
2023/07/26 02:14:28;;;;;;;13.20;4.40;;;;;;;-142.57;98.06;115900.28;6259828;23;20012;-86
2023/07/26 02:16:54;;;;;;;9.00;4.20;;;;;;;-142.57;97.19;115900.28;6264453;23;20012;-84
2023/07/26 02:19:19;;;;;;;5.88;3.63;;;;;;;-142.57;95.43;115900.28;6237765;23;20051;-83
2023/07/26 02:21:45;;;;;;;10.25;4.20;;;;;;;-142.57;94.54;115900.28;6241326;23;20012;-86
2023/07/26 02:24:30;;;;;;;6.28;3.47;;;;;;;-142.57;95.40;115900.28;6228598;23;20016;-85
2023/07/26 02:26:59;;;;;;;7.88;3.33;;;;;;;-142.57;94.74;115900.28;6255209;23;20019;-87
2023/07/26 02:29:24;;;;;;;6.75;3.55;;;;;;;-142.57;92.20;115900.28;6231889;23;20382;-86
2023/07/26 02:31:50;;;;;;;7.05;3.10;;;;;;;-142.57;89.16;115900.28;6233627;23;20026;-86
2023/07/26 02:34:15;;;;;;;6.70;3.42;;;;;;;-142.57;87.64;115900.28;6222358;23;20015;-84
2023/07/26 02:36:41;;;;;;;7.47;3.20;;;;;;;-142.57;87.02;115900.28;6250069;23;20065;-87
2023/07/26 02:39:06;;;;;;;7.25;3.25;;;;;;;-142.57;85.51;115900.28;6222714;23;20012;-89
2023/07/26 02:41:32;;;;;;;8.45;3.30;;;;;;;-142.57;84.87;115900.28;6249136;23;20008;-89
2023/07/26 02:43:57;;;;;;;4.78;2.90;;;;;;;-142.57;83.11;115900.28;6197967;23;20004;-84
2023/07/26 02:46:23;;;;;;;5.60;3.08;;;;;;;-142.57;82.02;115900.28;6248230;23;20008;-88
2023/07/26 02:48:48;;;;;;;7.68;3.58;;;;;;;-142.57;81.43;115900.28;6248084;23;20009;-87
2023/07/26 02:51:14;;;;;;;5.80;3.03;;;;;;;-142.57;81.02;115900.28;6247948;23;20352;-85
2023/07/26 02:53:40;;;;;;;10.00;3.22;;;;;;;-142.57;80.37;115900.28;6248137;23;20012;-85
2023/07/26 02:56:05;;;;;;;8.07;2.88;;;;;;;-142.57;79.54;115900.28;6220678;23;20096;-87
2023/07/26 02:58:31;;;;;;;10.00;2.78;;;;;;;-142.57;78.90;115900.28;6246964;23;20035;-86
2023/07/26 03:00:59;;;;;;;4.68;2.60;;;;;;;-142.57;78.14;115900.28;6247849;23;20400;-85
2023/07/26 03:03:25;;;;;;;4.07;2.17;;;;;;;-142.57;76.51;115900.28;6248335;23;20327;-85
2023/07/26 03:05:50;;;;;;;6.75;2.70;;;;;;;-142.57;75.22;115900.28;6249876;23;20035;-85
2023/07/26 03:08:16;;;;;;;5.05;2.42;;;;;;;-142.57;75.08;115900.28;6249184;23;20466;-86
2023/07/26 03:10:41;;;;;;;7.50;2.85;;;;;;;-142.57;74.85;115900.28;6253611;23;20008;-85
2023/07/26 03:13:07;;;;;;;5.70;2.85;;;;;;;-142.57;73.72;115900.28;6230876;23;20505;-88
2023/07/26 03:15:48;;;;;;;5.43;2.30;;;;;;;-142.57;73.06;115900.28;6226635;23;20008;-85
2023/07/26 03:18:15;;;;;;;4.82;2.35;;;;;;;-142.57;71.96;115900.28;6228583;23;20020;-86
2023/07/26 03:20:45;;;;;;;8.15;2.42;;;;;;;-142.57;70.77;115900.28;6220904;23;20057;-88
2023/07/26 03:23:11;;;;;;;6.03;2.47;;;;;;;-142.57;69.80;115900.28;6247336;23;20537;-87
2023/07/26 03:25:36;;;;;;;4.80;2.25;;;;;;;-142.57;68.38;115900.28;6221192;23;20121;-86
2023/07/26 03:28:03;;;;;;;6.05;2.58;;;;;;;-142.57;67.11;115900.28;6248089;23;20082;-88
2023/07/26 03:30:29;;;;;;;3.25;1.80;;;;;;;-142.57;66.68;115900.28;6221688;23;20019;-85
2023/07/26 03:32:55;;;;;;;5.43;1.98;;;;;;;-142.57;66.04;115900.28;6220948;23;20008;-85
2023/07/26 03:35:23;;;;;;;21.48;2.53;;;;;;;-142.57;66.32;115900.28;6248200;23;20012;-85
2023/07/26 03:37:48;;;;;;;4.38;2.22;;;;;;;-142.57;67.64;115900.28;6249133;23;20036;-86
2023/07/26 03:40:14;;;;;;;3.88;2.40;;;;;;;-142.57;69.82;115900.28;6247820;23;20011;-87
2023/07/26 03:42:43;;;;;;;7.32;2.60;;;;;;;-142.57;71.57;115900.28;6220329;23;20008;-86
2023/07/26 03:45:09;;;;;;;6.97;3.15;;;;;;;-142.57;73.83;115900.28;6222202;23;20023;-86
2023/07/26 03:47:37;;;;;;;4.07;2.70;;;;;;;-142.57;75.56;115900.28;6249072;23;20034;-87
2023/07/26 03:50:04;;;;;;;5.88;2.78;;;;;;;-142.57;77.28;115900.28;6249489;23;20012;-84
2023/07/26 03:52:30;;;;;;;6.53;3.20;;;;;;;-142.57;78.69;115900.28;6249125;23;20000;-86
2023/07/26 03:54:56;;;;;;;7.82;2.97;;;;;;;-142.57;79.08;115900.28;6222387;23;20339;-84
2023/07/26 03:57:21;;;;;;;5.75;2.97;;;;;;;-142.57;79.70;115900.28;6249542;23;20012;-86
2023/07/26 03:59:47;;;;;;;9.63;3.40;;;;;;;-142.57;80.13;115900.28;6197939;23;20023;-88
2023/07/26 04:02:12;;;;;;;9.35;3.00;;;;;;;-142.57;80.77;115900.28;6250449;23;20004;-87
2023/07/26 04:04:38;;;;;;;6.70;3.15;;;;;;;-142.57;80.91;115900.28;6226540;23;20016;-86
2023/07/26 04:07:04;;;;;;;9.95;3.45;;;;;;;-142.57;80.97;115900.28;6257863;23;20020;-84
2023/07/26 04:09:33;;;;;;;6.57;3.22;;;;;;;-142.57;79.62;115900.28;6252747;23;20062;-84
2023/07/26 04:12:01;;;;;;;5.55;2.97;;;;;;;-142.57;79.13;115900.28;6249212;23;20064;-85
2023/07/26 04:14:26;;;;;;;9.20;3.75;;;;;;;-142.57;79.17;115900.28;6248291;23;20079;-85
2023/07/26 04:16:52;;;;;;;7.90;3.03;;;;;;;-142.57;80.14;115900.28;6248922;23;20016;-85
2023/07/26 04:19:18;;;;;;;5.20;2.78;;;;;;;-142.57;79.98;115900.28;6248784;23;20008;-84
2023/07/26 04:21:43;;;;;;;5.95;2.90;;;;;;;-142.57;79.47;115900.28;6222231;23;20008;-86
2023/07/26 04:24:09;;;;;;;9.15;2.72;;;;;;;-142.57;79.76;115900.28;6222140;23;20019;-85
2023/07/26 04:26:37;;;;;;;5.97;3.20;;;;;;;-142.57;81.87;115900.28;6249335;23;20091;-83
2023/07/26 04:29:03;;;;;;;9.00;3.40;;;;;;;-142.57;83.31;115900.28;6251088;23;20012;-84
2023/07/26 04:31:28;;;;;;;5.70;2.90;;;;;;;-142.57;83.87;115900.28;6249334;23;20128;-88
2023/07/26 04:33:54;;;;;;;7.43;3.63;;;;;;;-142.57;85.24;115900.28;6249865;23;20083;-85
2023/07/26 04:36:20;;;;;;;6.45;3.28;;;;;;;-142.57;84.93;115900.28;6249897;23;20096;-84
2023/07/26 04:38:45;;;;;;;12.40;3.40;;;;;;;-142.57;85.36;115900.28;6249985;23;20008;-84
2023/07/26 04:41:13;;;;;;;6.60;3.08;;;;;;;-142.57;84.59;115900.28;6249692;23;20071;-81
2023/07/26 04:43:38;;;;;;;8.18;3.65;;;;;;;-142.57;83.39;115900.28;6248527;23;20012;-85
2023/07/26 04:46:04;;;;;;;7.68;3.17;;;;;;;-142.57;83.23;115900.28;6222168;23;20451;-82
2023/07/26 04:48:31;;;;;;;9.77;3.78;;;;;;;-142.57;85.33;115900.28;6248452;23;20079;-82
2023/07/26 04:50:56;;;;;;;7.68;3.00;;;;;;;-142.57;87.10;115900.28;6248578;23;20015;-88
2023/07/26 04:53:22;;;;;;;9.15;3.47;;;;;;;-142.57;87.82;115900.28;6248902;23;20004;-88
2023/07/26 04:55:51;;;;;;;7.30;3.65;;;;;;;-142.57;86.43;115900.28;6250293;23;20000;-87
2023/07/26 04:58:18;;;;;;;8.70;3.50;;;;;;;-142.57;85.53;115900.28;6250985;23;20016;-86
2023/07/26 05:00:47;;;;;;;9.43;3.38;;;;;;;-142.57;84.93;115900.28;6256196;23;20004;-85
2023/07/26 05:03:13;;;;;;;9.40;3.17;;;;;;;-142.57;82.92;115900.28;6254779;23;20343;-86
2023/07/26 05:05:39;;;;;;;6.28;3.33;;;;;;;-142.57;82.53;115900.28;6257364;23;20016;-88
2023/07/26 05:08:07;;;;;;;11.82;3.17;;;;;;;-142.57;81.74;115900.28;6263636;23;20416;-88
2023/07/26 05:10:35;;;;;;;11.18;2.90;;;;;;;-142.57;81.22;115900.28;6255197;23;20012;-88
2023/07/26 05:13:20;;;;;;;9.57;3.40;;;;;;;-142.57;80.85;115900.28;6255587;23;20031;-89
2023/07/26 05:15:46;;;;;;;9.93;2.95;;;;;;;-142.57;78.69;115900.28;6257413;23;20020;-91
2023/07/26 05:18:14;;;;;;;7.80;2.78;;;;;;;-142.57;76.01;115900.28;6252959;23;20084;-84
2023/07/26 05:20:41;;;;;;;6.38;2.65;;;;;;;-142.57;74.94;115900.28;6233327;23;20015;-89
2023/07/26 05:23:06;;;;;;;12.07;2.65;;;;;;;-142.57;74.19;115900.28;6256009;22;20018;-87
2023/07/26 05:25:32;;;;;;;5.25;2.50;;;;;;;-142.57;72.44;115900.28;6257149;23;20015;-89
2023/07/26 05:27:58;;;;;;;5.88;2.45;;;;;;;-142.57;71.61;115900.28;6249265;23;20010;-88
2023/07/26 05:30:23;;;;;;;9.40;2.13;;;;;;;-142.57;70.55;115900.28;6248432;23;20027;-86
2023/07/26 05:32:49;;;;;;;4.95;2.35;;;;;;;-142.57;69.30;115900.28;6222276;23;20012;-90
2023/07/26 05:35:14;;;;;;;5.38;2.10;;;;;;;-142.57;68.73;115900.28;6250186;23;20053;-90
2023/07/26 05:37:41;;;;;;;9.02;2.10;;;;;;;-142.57;67.00;115900.28;6256638;23;20008;-87
2023/07/26 05:40:07;;;;;;;3.83;1.30;;;;;;;-142.57;66.65;115900.28;6264648;22;20030;-89
2023/07/26 05:42:33;;;;;;;4.45;1.60;;;;;;;-142.57;65.90;115900.28;6272449;23;20054;-89
2023/07/26 05:45:02;;;;;;;4.80;1.70;;;;;;;-142.57;64.03;115900.28;6245956;22;20016;-88
2023/07/26 05:47:28;;;;;;;2.65;1.67;;;;;;;-142.57;61.28;115900.28;6245523;23;20020;-92
2023/07/26 05:49:54;;;;;;;5.03;1.70;;;;;;;-142.57;59.49;115900.28;6271291;22;20023;-90
2023/07/26 05:52:19;;;;;;;9.75;1.50;;;;;;;-142.57;57.15;115900.28;6271487;22;20031;-88
2023/07/26 05:54:46;;;;;;;7.30;1.38;;;;;;;-142.57;54.41;115900.28;6251207;23;20004;-86
2023/07/26 05:57:11;;;;;;;8.80;1.30;;;;;;;-142.57;53.65;115900.28;6224421;23;20016;-87
2023/07/26 05:59:37;;;;;;;4.72;1.30;;;;;;;-142.57;50.96;115900.28;6250656;23;20004;-88
2023/07/26 06:02:06;;;;;;;3.78;1.10;;;;;;;-142.57;48.48;115900.28;6250116;23;20004;-89
2023/07/26 06:04:37;;;;;;;2.22;0.98;;;;;;;-142.57;45.12;115900.28;6250461;23;20008;-90
2023/07/26 06:07:04;;;;;;;1.77;0.70;;;;;;;-142.57;43.52;115900.28;6248841;23;20070;-88
2023/07/26 06:09:33;;;;;;;2.50;0.65;;;;;;;-142.57;41.63;115900.28;6250617;23;20016;-92
2023/07/26 06:11:59;;;;;;;3.03;0.50;;;;;;;-142.57;40.86;115900.28;6224608;23;20078;-88
2023/07/26 06:14:25;;;;;;;5.68;1.00;;;;;;;-142.57;39.45;115900.28;6253430;23;20447;-87
2023/07/26 06:16:51;;;;;;;2.85;0.60;;;;;;;-142.57;38.24;115900.28;6253276;23;20331;-89
2023/07/26 06:19:20;;;;;;;7.78;0.63;;;;;;;-142.57;37.05;115900.28;6248416;23;20405;-91
2023/07/26 06:21:46;;;;;;;4.10;0.70;;;;;;;-142.57;37.40;115900.28;6224921;23;20020;-91
2023/07/26 06:27:41;;;;;;;1.30;0.73;;;;;;;-142.57;35.95;115900.28;6104941;23;20041;-91
2023/07/26 06:30:33;;;;;;;3.45;0.98;;;;;;;-142.57;36.45;115900.28;6103814;23;20516;-89
2023/07/26 06:32:59;;;;;;;3.22;0.90;;;;;;;-142.57;35.17;115900.28;6100506;23;20014;-90
2023/07/26 06:35:24;;;;;;;4.35;0.60;;;;;;;-142.57;34.83;115900.28;6099976;23;20069;-89
2023/07/26 06:37:55;;;;;;;2.38;0.40;;;;;;;-142.57;33.69;115900.28;6128648;23;20027;-90
2023/07/26 06:40:21;;;;;;;6.47;0.50;;;;;;;-142.57;33.09;115900.28;6222000;23;20443;-91
2023/07/26 06:42:47;;;;;;;2.03;0.32;;;;;;;-142.57;33.87;115900.28;6225642;23;20079;-88
2023/07/26 06:45:12;;;;;;;0.80;0.50;;;;;;;-142.57;33.59;115900.28;6252139;23;20012;-91
2023/07/26 06:47:43;;;;;;;0.60;0.40;;;;;;;-142.57;33.16;115900.28;6253795;23;20016;-92
2023/07/26 06:50:12;;;;;;;4.93;0.47;;;;;;;-142.57;33.39;115900.28;6200854;23;20008;-92
2023/07/26 06:53:24;;;;;;;4.30;0.45;;;;;;;-142.57;33.03;115900.28;6253448;23;20004;-92
2023/07/26 06:56:14;;;;;;;0.93;0.60;;;;;;;-142.57;31.83;115900.28;6050426;23;20094;-92
2023/07/26 06:59:12;;;;;;;3.40;0.47;;;;;;;-142.57;32.07;115900.28;6020975;23;20056;-91
2023/07/26 07:02:02;;;;;;;10.15;0.85;;;;;;;-142.57;31.55;115900.28;6025735;23;20015;-92
2023/07/26 07:04:47;;;;;;;0.98;0.40;;;;;;;-142.57;31.46;115900.28;6009552;23;20022;-91
2023/07/26 07:07:14;;;;;;;;;;;;;;;-142.57;31.42;115900.28;6061954;23;20102;-91
2023/07/26 07:09:51;;;;;;;1.05;0.40;;;;;;;-142.57;30.45;115900.28;6104897;23;19917;-92
2023/07/26 07:12:39;;;;;;;4.82;0.50;;;;;;;-142.57;29.58;115900.28;6137678;23;20024;-90
2023/07/26 07:15:19;;;;;;;3.13;0.40;;;;;;;-142.57;28.50;115900.28;6194265;23;20017;-92
2023/07/26 07:17:55;;;;;;;5.78;0.50;;;;;;;-142.57;28.53;115900.28;6199844;23;20024;-91
2023/07/26 07:28:33;;;;;;;2.65;0.32;;;;;;;-142.57;27.70;115900.28;6254959;22;19983;-89
2023/07/26 07:31:06;;;;;;;2.63;0.45;;;;;;;-142.57;27.70;115900.28;6254815;23;20018;-90
2023/07/26 07:33:31;;;;;;;0.80;0.20;;;;;;;-142.57;27.82;115900.28;6241407;23;20019;-91
2023/07/26 07:36:04;;;;;;;1.70;0.50;;;;;;;-142.57;27.34;115900.28;6274541;22;20004;-93
2023/07/26 07:38:31;;;;;;;3.05;0.30;;;;;;;-142.57;27.45;115900.28;6248503;22;20150;-89
2023/07/26 07:40:57;;;;;;;2.83;0.20;;;;;;;-142.57;27.95;115900.28;6275207;22;20016;-89
2023/07/26 07:43:42;;;;;;;0.98;0.47;;;;;;;-142.57;26.96;115900.28;6275014;22;20023;-92
2023/07/26 07:46:14;;;;;;;5.05;0.63;;;;;;;-142.57;25.81;115900.28;6273335;22;20004;-90
2023/07/26 07:48:41;;;;;;;4.10;0.40;;;;;;;-142.57;26.44;115900.28;6272066;22;20012;-89
2023/07/26 07:51:07;;;;;;;1.88;0.15;;;;;;;-142.57;26.16;115900.28;6219362;23;20095;-95
2023/07/26 07:53:35;;;;;;;2.38;0.30;;;;;;;-142.57;25.93;115900.28;6203270;23;20036;-88
2023/07/26 07:56:01;;;;;;;7.45;0.30;;;;;;;-142.57;26.28;115900.28;6227164;23;20032;-93
2023/07/26 07:58:30;;;;;;;4.90;0.40;;;;;;;-142.57;25.79;115900.28;6226962;23;20005;-90
2023/07/26 08:00:59;;;;;;;0.60;0.25;;;;;;;-142.57;26.07;115900.28;6226192;23;20039;-90
2023/07/26 08:03:29;;;;;;;3.70;0.57;;;;;;;-142.57;25.41;115900.28;6251180;23;20008;-91
2023/07/26 08:05:54;;;;;;;0.93;0.32;;;;;;;-142.57;25.81;115900.28;6250961;23;20447;-91
2023/07/26 08:08:20;;;;;;;1.55;0.50;;;;;;;-142.57;25.79;115900.28;6225249;23;20004;-90
2023/07/26 08:10:45;;;;;;;4.20;0.47;;;;;;;-142.57;24.98;115900.28;6225706;23;20079;-91
2023/07/26 08:13:11;;;;;;;1.75;0.50;;;;;;;-142.57;25.25;115900.28;6253357;23;20019;-91
2023/07/26 08:15:38;;;;;;;3.95;0.30;;;;;;;-142.57;25.48;115900.28;6253013;23;20017;-91
2023/07/26 08:18:05;;;;;;;0.55;0.32;;;;;;;-142.57;25.96;115900.28;6226667;23;20035;-91
2023/07/26 08:20:35;;;;;;;6.50;0.47;;;;;;;-142.57;25.89;115900.28;6252056;23;20343;-90
2023/07/26 08:23:04;;;;;;;2.72;0.47;;;;;;;-142.57;26.27;115900.28;6202010;23;20008;-89
2023/07/26 08:25:30;;;;;;;1.10;0.47;;;;;;;-142.57;25.69;115900.28;6226677;23;20016;-91
2023/07/26 08:27:56;;;;;;;1.73;0.55;;;;;;;-142.57;25.47;115900.28;6195539;23;20023;-91
2023/07/26 08:30:22;;;;;;;3.47;0.50;;;;;;;-142.57;25.10;115900.28;6221709;23;20013;-89
2023/07/26 08:32:47;;;;;;;6.38;0.60;;;;;;;-142.57;25.48;115900.28;6213596;23;20048;-88
2023/07/26 08:35:13;;;;;;;0.70;0.40;;;;;;;-142.57;25.66;115900.28;6215517;23;20112;-88
2023/07/26 08:37:38;;;;;;;3.97;0.50;;;;;;;-142.57;25.42;115900.28;6217367;23;20015;-89
2023/07/26 08:40:08;;;;;;;2.28;0.60;;;;;;;-142.57;25.64;115900.28;6218909;23;20155;-88
2023/07/26 08:42:37;;;;;;;9.00;1.00;;;;;;;-142.57;25.23;115900.28;6218864;23;20062;-88
2023/07/26 08:45:05;;;;;;;2.08;0.35;;;;;;;-142.57;25.45;115900.28;6217615;23;20071;-88
2023/07/26 08:47:34;;;;;;;1.33;0.50;;;;;;;-142.57;25.29;115900.28;6215709;23;20038;-88
2023/07/26 08:50:02;;;;;;;2.70;0.52;;;;;;;-142.57;24.83;115900.28;6218697;23;20025;-89
2023/07/26 08:52:28;;;;;;;4.40;0.70;;;;;;;-142.57;25.11;115900.28;6218715;23;20043;-90
2023/07/26 08:54:55;;;;;;;4.18;0.90;;;;;;;-142.57;25.37;115900.28;6216642;23;20009;-90
2023/07/26 08:57:24;;;;;;;3.22;0.60;;;;;;;-142.57;25.77;115900.28;6218015;23;20427;-91
2023/07/26 08:59:52;;;;;;;6.28;0.80;;;;;;;-142.57;25.91;115900.28;6221421;23;20016;-89
2023/07/26 09:02:19;;;;;;;1.90;0.68;;;;;;;-142.57;25.69;115900.28;6218737;23;20339;-88
2023/07/26 09:04:47;;;;;;;3.55;0.50;;;;;;;-142.57;25.61;115900.28;6217731;23;20019;-92
2023/07/26 09:07:14;;;;;;;2.15;0.40;;;;;;;-142.57;24.72;115900.28;6217336;23;20016;-88
2023/07/26 09:09:40;;;;;;;3.97;0.60;;;;;;;-142.57;25.23;115900.28;6218953;23;20004;-87
2023/07/26 09:12:06;;;;;;;1.10;0.63;;;;;;;-142.57;24.91;115900.28;6221048;23;20017;-88
2023/07/26 09:14:32;;;;;;;1.25;0.68;;;;;;;-142.57;25.35;115900.28;6225737;23;20013;-89
2023/07/26 09:17:04;;;;;;;1.35;0.70;;;;;;;-142.57;25.38;115900.28;6224364;23;20009;-88
2023/07/26 09:19:37;;;;;;;1.58;0.65;;;;;;;-142.57;25.43;115900.28;6225569;23;20432;-89
2023/07/26 09:22:05;;;;;;;2.95;0.70;;;;;;;-142.57;25.44;115900.28;6225932;23;20092;-88
2023/07/26 09:24:33;;;;;;;1.27;0.57;;;;;;;-142.57;25.31;115900.28;6227430;23;20083;-88
2023/07/26 09:27:08;;;;;;;2.53;0.60;;;;;;;-142.57;25.52;115900.28;6236080;23;20027;-86
2023/07/26 09:29:40;;;;;;;5.38;0.98;;;;;;;-142.57;25.61;115900.28;6227433;23;20012;-86
2023/07/26 09:32:07;;;;;;;8.65;1.38;;;;;;;-142.57;25.79;115900.28;6251855;23;20004;-87
2023/07/26 09:34:33;;;;;;;8.02;1.35;;;;;;;-142.57;25.87;115900.28;6252714;23;20012;-86
2023/07/26 09:36:59;;;;;;;3.50;0.60;;;;;;;-142.57;25.81;115900.28;6253205;23;20008;-87
2023/07/26 09:39:28;;;;;;;4.57;0.70;;;;;;;-142.57;24.65;115900.28;6232211;23;20012;-88
2023/07/26 09:42:05;;;;;;;1.25;0.50;;;;;;;-142.57;24.13;115900.28;6268050;22;20012;-84
2023/07/26 09:44:32;;;;;;;3.33;0.45;;;;;;;-142.57;24.63;115900.28;6245297;23;19996;-84
2023/07/26 09:46:58;;;;;;;4.50;0.60;;;;;;;-142.57;24.26;115900.28;6246937;23;20020;-89
2023/07/26 09:49:29;;;;;;;3.38;0.60;;;;;;;-142.57;24.85;115900.28;6272352;23;20011;-89
2023/07/26 09:51:58;;;;;;;3.88;0.75;;;;;;;-142.57;24.63;115900.28;6273625;22;20043;-88
2023/07/26 09:54:29;;;;;;;2.00;0.63;;;;;;;-142.57;24.42;115900.28;6273361;22;20007;-89
2023/07/26 09:56:56;;;;;;;6.83;0.60;;;;;;;-142.57;24.18;115900.28;6203631;23;20012;-89
2023/07/26 09:59:25;;;;;;;3.92;0.40;;;;;;;-142.57;24.27;115900.28;6227348;23;20008;-89
2023/07/26 10:01:53;;;;;;;1.95;0.60;;;;;;;-142.57;23.80;115900.28;6265044;23;20016;-89
2023/07/26 10:04:47;;;;;;;2.63;0.65;;;;;;;-142.57;25.29;115900.28;6271723;23;20040;-87
2023/07/26 10:07:13;;;;;;;2.60;0.40;;;;;;;-142.57;24.10;115900.28;6261198;23;20035;-92
2023/07/26 10:09:44;;;;;;;1.02;0.40;;;;;;;-142.57;23.54;115900.28;6258461;23;20468;-87
2023/07/26 10:12:11;;;;;;;1.65;0.45;;;;;;;-142.57;23.84;115900.28;6240370;23;20015;-86
2023/07/26 10:14:38;;;;;;;1.60;0.40;;;;;;;-142.57;23.73;115900.28;6271032;22;20072;-87
2023/07/26 10:17:05;;;;;;;2.45;0.50;;;;;;;-142.57;24.39;115900.28;6245159;23;20020;-88
2023/07/26 10:19:31;;;;;;;3.22;0.30;;;;;;;-142.57;24.52;115900.28;6220515;23;20008;-89
2023/07/26 10:21:58;;;;;;;1.00;0.52;;;;;;;-142.57;24.67;115900.28;6271297;23;19996;-90
2023/07/26 10:24:24;;;;;;;0.70;0.40;;;;;;;-142.57;25.23;115900.28;6263213;23;20000;-89
2023/07/26 10:26:53;;;;;;;3.47;0.77;;;;;;;-142.57;25.20;115900.28;6223985;23;20047;-91
2023/07/26 10:29:20;;;;;;;2.13;0.52;;;;;;;-142.57;25.48;115900.28;6200238;23;20072;-91
2023/07/26 10:32:14;;;;;;;5.63;0.45;;;;;;;-142.57;24.85;115900.28;6227865;23;20004;-88
2023/07/26 10:34:42;;;;;;;1.00;0.70;;;;;;;-142.57;24.45;115900.28;6225208;23;20012;-89
2023/07/26 10:37:15;;;;;;;4.28;0.43;;;;;;;-142.57;24.69;115900.28;6172691;23;20020;-91
2023/07/26 10:39:41;;;;;;;0.85;0.40;;;;;;;-142.57;23.89;115900.28;6220273;23;20363;-90
2023/07/26 10:42:25;;;;;;;1.17;0.43;;;;;;;-142.57;23.61;115900.28;6224108;23;20020;-91
2023/07/26 10:45:31;;;;;;;5.05;1.58;;;;;;;-142.57;23.11;115900.28;6236814;23;20017;-86
2023/07/26 10:48:32;;;;;;;2.30;1.17;;;;;;;-142.57;24.28;115900.28;6216025;22;20064;-88
2023/07/26 10:51:21;;;;;;;4.00;0.70;;;;;;;-142.57;24.84;115900.28;6226244;23;20013;-90
2023/07/26 10:54:05;;;;;;;5.63;0.80;;;;;;;-142.57;24.68;115900.28;6221195;23;20009;-89
2023/07/26 10:56:33;;;;;;;2.03;0.85;;;;;;;-142.57;25.13;115900.28;6225106;23;20016;-90
2023/07/26 10:59:02;;;;;;;2.08;0.90;;;;;;;-142.57;25.04;115900.28;6226713;23;20322;-91
2023/07/26 11:01:39;;;;;;;3.85;0.70;;;;;;;-142.57;25.25;115900.28;6228614;23;20026;-91
2023/07/26 11:04:18;;;;;;;6.50;0.88;;;;;;;-142.57;25.34;115900.28;6229318;23;20008;-94
2023/07/26 11:06:47;;;;;;;5.82;0.80;;;;;;;-142.57;25.47;115900.28;6229974;23;20043;-92
2023/07/26 11:09:28;;;;;;;12.68;0.90;;;;;;;-142.57;25.30;115900.28;6227778;23;20015;-92
2023/07/26 11:12:03;;;;;;;6.03;0.85;;;;;;;-142.57;25.17;115900.28;6227316;23;20038;-89
2023/07/26 11:14:35;;;;;;;7.63;0.70;;;;;;;-142.57;24.73;115900.28;6226771;23;20020;-90
2023/07/26 11:17:20;;;;;;;2.13;0.70;;;;;;;-142.57;25.04;115900.28;6193548;23;20075;-90
2023/07/26 11:19:48;;;;;;;12.77;0.90;;;;;;;-142.57;25.06;115900.28;6222265;23;20009;-88
2023/07/26 11:22:14;;;;;;;7.22;1.08;;;;;;;-142.57;24.49;115900.28;6218584;23;20016;-91
2023/07/26 11:24:40;;;;;;;2.85;1.23;;;;;;;-142.57;25.36;115900.28;6221117;23;20015;-91
2023/07/26 11:27:11;;;;;;;2.03;0.95;;;;;;;-142.57;25.27;115900.28;6224067;23;20012;-89
2023/07/26 11:29:37;;;;;;;;;;;;;;;-142.57;25.53;115900.28;6220458;23;20394;-91